createdAt,value
2022-12-12T00:01:49.801Z,98973.19
2022-12-12T00:04:16.759Z,98979.22
2022-12-12T00:06:43.355Z,98976.72
2022-12-12T00:09:09.933Z,98990.41
2022-12-12T00:11:36.883Z,98984.28
2022-12-12T00:14:03.696Z,98991.06
2022-12-12T00:16:30.746Z,98988.47
2022-12-12T00:18:57.399Z,98992.09
2022-12-12T00:21:27.163Z,98992.00
2022-12-12T00:23:54.580Z,98992.81
2022-12-12T00:26:26.702Z,98995.44
2022-12-12T00:28:53.390Z,98999.78
2022-12-12T00:31:20.345Z,99002.28
2022-12-12T00:33:47.693Z,99007.47
2022-12-12T00:36:14.764Z,99014.50
2022-12-12T00:38:41.364Z,99020.59
2022-12-12T00:41:08.230Z,99026.44
2022-12-12T00:43:34.905Z,99023.84
2022-12-12T00:46:02.714Z,99034.97
2022-12-12T00:48:29.396Z,99029.78
2022-12-12T00:50:56.736Z,99031.50
2022-12-12T00:53:23.622Z,99034.25
2022-12-12T00:55:57.299Z,99035.97
2022-12-12T00:58:25.166Z,99037.47
2022-12-12T01:00:52.482Z,99034.84
2022-12-12T01:03:19.817Z,99027.13
2022-12-12T01:05:46.597Z,99013.56
2022-12-12T01:08:13.214Z,99012.63
2022-12-12T01:10:40.656Z,99006.50
2022-12-12T01:13:07.298Z,99011.66
2022-12-12T01:15:33.872Z,99011.63
2022-12-12T01:18:00.466Z,99019.09
2022-12-12T01:20:28.390Z,99016.69
2022-12-12T01:22:55.060Z,99026.38
2022-12-12T01:25:21.771Z,99029.75
2022-12-12T01:27:48.638Z,99016.66
2022-12-12T01:30:17.112Z,99022.78
2022-12-12T01:32:43.906Z,99015.06
2022-12-12T01:35:11.441Z,99016.03
2022-12-12T01:37:40.409Z,99014.03
2022-12-12T01:40:14.523Z,99011.66
2022-12-12T01:42:41.595Z,99008.34
2022-12-12T01:45:28.838Z,98998.81
2022-12-12T01:47:57.303Z,98990.31
2022-12-12T01:50:27.083Z,98995.63
2022-12-12T01:52:53.678Z,98980.09
2022-12-12T01:55:23.035Z,98974.00
2022-12-12T01:57:53.349Z,98975.66
2022-12-12T02:00:20.631Z,98979.84
2022-12-12T02:02:48.307Z,98979.06
2022-12-12T02:05:24.470Z,98987.38
2022-12-12T02:07:51.604Z,99011.44
2022-12-12T02:10:18.350Z,99020.84
2022-12-12T02:12:45.181Z,99021.75
2022-12-12T02:15:12.988Z,99024.41
2022-12-12T02:18:17.881Z,99021.94
2022-12-12T02:20:47.171Z,99022.63
2022-12-12T02:23:38.587Z,99024.31
2022-12-12T02:26:30.408Z,99035.72
2022-12-12T02:29:06.031Z,99026.28
2022-12-12T02:31:57.312Z,99027.16
2022-12-12T02:34:50.398Z,99006.41
2022-12-12T02:37:30.370Z,99008.19
2022-12-12T02:40:21.768Z,99003.88
2022-12-12T02:42:48.364Z,99007.94
2022-12-12T02:45:48.773Z,99002.81
2022-12-12T02:48:25.263Z,99013.09
2022-12-12T02:50:54.828Z,99018.28
2022-12-12T02:53:23.477Z,99024.31
2022-12-12T02:56:04.715Z,99011.38
2022-12-12T02:58:32.903Z,99025.88
2022-12-12T03:01:31.905Z,99030.09
2022-12-12T03:04:10.957Z,99032.72
2022-12-12T03:07:03.343Z,99041.16
2022-12-12T03:09:55.944Z,99047.50
2022-12-12T03:12:34.381Z,99047.53
2022-12-12T03:15:26.335Z,99049.34
2022-12-12T03:18:05.043Z,99044.09
2022-12-12T03:21:05.138Z,99046.63
2022-12-12T03:23:37.918Z,99042.31
2022-12-12T03:26:24.838Z,99044.78
2022-12-12T03:28:58.938Z,99045.75
2022-12-12T03:31:30.585Z,99041.69
2022-12-12T03:34:11.859Z,99042.19
2022-12-12T03:36:49.386Z,99053.66
2022-12-12T03:39:24.221Z,99059.69
2022-12-12T03:42:02.948Z,99067.63
2022-12-12T03:44:41.108Z,99074.00
2022-12-12T03:47:18.499Z,99084.53
2022-12-12T03:49:59.053Z,99093.91
2022-12-12T03:52:43.789Z,99097.22
2022-12-12T03:55:33.529Z,99093.91
2022-12-12T03:58:05.701Z,99099.97
2022-12-12T04:00:34.776Z,99100.03
2022-12-12T04:03:25.138Z,99100.47
2022-12-12T04:05:58.028Z,99102.41
2022-12-12T04:08:25.061Z,99104.16
2022-12-12T04:11:00.009Z,99106.94
2022-12-12T04:13:37.847Z,99112.00
2022-12-12T04:16:14.299Z,99124.75
2022-12-12T04:18:53.746Z,99123.06
2022-12-12T04:21:29.478Z,99118.03
2022-12-12T04:24:07.771Z,99130.88
2022-12-12T04:26:38.573Z,99129.03
2022-12-12T04:29:29.455Z,99121.34
2022-12-12T04:32:21.827Z,99123.94
2022-12-12T04:34:54.332Z,99129.88
2022-12-12T04:37:26.926Z,99122.84
2022-12-12T04:39:58.335Z,99132.47
2022-12-12T04:42:29.458Z,99117.66
2022-12-12T04:45:07.820Z,99129.94
2022-12-12T04:47:37.503Z,99135.94
2022-12-12T04:50:07.943Z,99122.19
2022-12-12T04:52:36.147Z,99135.13
2022-12-12T04:55:29.874Z,99130.53
2022-12-12T04:57:57.029Z,99138.09
2022-12-12T05:00:25.311Z,99133.81
2022-12-12T05:02:57.838Z,99138.06
2022-12-12T05:06:04.597Z,99140.06
2022-12-12T05:08:47.382Z,99141.69
2022-12-12T05:11:15.582Z,99150.13
2022-12-12T05:13:43.100Z,99147.44
2022-12-12T05:16:28.416Z,99148.28
2022-12-12T05:18:55.111Z,99144.19
2022-12-12T05:21:21.820Z,99160.53
2022-12-12T05:23:48.399Z,99155.13
2022-12-12T05:26:27.426Z,99155.13
2022-12-12T05:28:54.636Z,99155.13
2022-12-12T05:31:22.067Z,99167.03
2022-12-12T05:33:48.786Z,99155.84
2022-12-12T05:36:16.097Z,99160.09
2022-12-12T05:38:43.245Z,99164.31
2022-12-12T05:41:10.337Z,99160.84
2022-12-12T05:43:37.670Z,99166.78
2022-12-12T05:46:05.118Z,99170.03
2022-12-12T05:48:31.895Z,99169.94
2022-12-12T05:51:01.028Z,99173.66
2022-12-12T05:53:27.908Z,99174.34
2022-12-12T05:55:54.537Z,99184.63
2022-12-12T05:58:21.132Z,99177.84
2022-12-12T06:00:49.256Z,99171.97
2022-12-12T06:03:16.755Z,99182.91
2022-12-12T06:05:43.459Z,99184.41
2022-12-12T06:08:10.195Z,99187.47
2022-12-12T06:10:36.825Z,99184.63
2022-12-12T06:13:03.638Z,99189.00
2022-12-12T06:15:30.264Z,99191.88
2022-12-12T06:17:56.928Z,99182.97
2022-12-12T06:20:23.646Z,99184.47
2022-12-12T06:22:53.712Z,99193.16
2022-12-12T06:25:20.918Z,99192.06
2022-12-12T06:27:47.637Z,99194.81
2022-12-12T06:30:14.598Z,99187.63
2022-12-12T06:32:41.285Z,99204.06
2022-12-12T06:35:08.332Z,99200.75
2022-12-12T06:37:35.149Z,99200.06
2022-12-12T06:40:01.763Z,99206.97
2022-12-12T06:42:28.360Z,99219.69
2022-12-12T06:44:54.946Z,99217.81
2022-12-12T06:47:21.546Z,99217.97
2022-12-12T06:49:48.273Z,99222.63
2022-12-12T06:52:14.878Z,99218.91
2022-12-12T06:54:41.463Z,99219.13
2022-12-12T06:57:08.187Z,99223.16
2022-12-12T06:59:34.818Z,99233.56
2022-12-12T07:02:01.482Z,99223.03
2022-12-12T07:04:28.120Z,99219.22
2022-12-12T07:06:54.784Z,99220.50
2022-12-12T07:09:21.483Z,99226.63
2022-12-12T07:11:48.071Z,99237.00
2022-12-12T07:14:14.662Z,99231.78
2022-12-12T07:16:41.231Z,99234.38
2022-12-12T07:19:07.819Z,99248.97
2022-12-12T07:21:34.507Z,99246.53
2022-12-12T07:24:01.142Z,99245.81
2022-12-12T07:26:27.732Z,99259.38
2022-12-12T07:28:54.322Z,99255.25
2022-12-12T07:31:23.349Z,99256.91
2022-12-12T07:33:50.027Z,99261.38
2022-12-12T07:36:16.984Z,99260.34
2022-12-12T07:38:44.546Z,99264.66
2022-12-12T07:41:14.424Z,99263.31
2022-12-12T07:43:44.175Z,99259.78
2022-12-12T07:46:15.203Z,99263.66
2022-12-12T07:48:42.070Z,99267.19
2022-12-12T07:51:08.920Z,99273.25
2022-12-12T07:53:35.625Z,99267.34
2022-12-12T07:56:05.443Z,99281.97
2022-12-12T07:58:32.195Z,99283.84
2022-12-12T08:00:58.839Z,99284.84
2022-12-12T08:03:25.444Z,99292.66
2022-12-12T08:05:52.033Z,99287.56
2022-12-12T08:08:18.658Z,99292.78
2022-12-12T08:10:45.269Z,99288.31
2022-12-12T08:13:11.855Z,99292.78
2022-12-12T08:15:38.554Z,99297.78
2022-12-12T08:18:05.199Z,99296.22
2022-12-12T08:20:31.785Z,99298.94
2022-12-12T08:22:59.058Z,99310.06
2022-12-12T08:25:25.642Z,99311.72
2022-12-12T08:27:52.223Z,99313.66
2022-12-12T08:30:18.965Z,99305.13
2022-12-12T08:32:45.567Z,99311.06
2022-12-12T08:35:12.379Z,99311.16
2022-12-12T08:37:39.160Z,99324.91
2022-12-12T08:40:06.230Z,99328.22
2022-12-12T08:42:32.786Z,99318.84
2022-12-12T08:44:59.359Z,99324.91
2022-12-12T08:47:25.980Z,99312.88
2022-12-12T08:49:52.643Z,99308.75
2022-12-12T08:52:19.230Z,99313.03
2022-12-12T08:54:45.929Z,99317.41
2022-12-12T08:57:12.513Z,99316.56
2022-12-12T08:59:39.102Z,99313.31
2022-12-12T09:02:06.022Z,99319.38
2022-12-12T09:04:34.465Z,99319.41
2022-12-12T09:07:06.618Z,99313.56
2022-12-12T09:09:34.790Z,99314.56
2022-12-12T09:12:01.435Z,99325.09
2022-12-12T09:14:28.032Z,99314.31
2022-12-12T09:16:54.638Z,99320.59
2022-12-12T09:19:21.300Z,99333.66
2022-12-12T09:21:47.946Z,99338.94
2022-12-12T09:24:14.537Z,99339.59
2022-12-12T09:26:41.190Z,99328.59
2022-12-12T09:29:07.774Z,99334.78
2022-12-12T09:31:34.432Z,99337.34
2022-12-12T09:34:01.077Z,99330.66
2022-12-12T09:36:27.662Z,99336.47
2022-12-12T09:38:54.251Z,99332.84
2022-12-12T09:41:24.692Z,99320.75
2022-12-12T09:44:01.153Z,99328.75
2022-12-12T09:46:46.519Z,99329.69
2022-12-12T09:49:15.210Z,99330.34
2022-12-12T09:51:48.640Z,99322.41
2022-12-12T09:54:19.151Z,99325.09
2022-12-12T09:57:10.656Z,99331.78
2022-12-12T10:00:08.809Z,99332.97
2022-12-12T10:03:02.883Z,99332.03
2022-12-12T10:05:42.665Z,99338.81
2022-12-12T10:08:54.677Z,99338.25
2022-12-12T10:11:28.736Z,99332.72
2022-12-12T10:14:00.374Z,99338.69
2022-12-12T10:16:30.767Z,99336.81
2022-12-12T10:19:07.912Z,99340.13
2022-12-12T10:21:37.967Z,99344.56
2022-12-12T10:24:16.312Z,99339.34
2022-12-12T10:26:43.049Z,99357.72
2022-12-12T10:29:21.301Z,99346.41
2022-12-12T10:32:12.200Z,99343.84
2022-12-12T10:34:43.167Z,99348.25
2022-12-12T10:37:36.913Z,99345.91
2022-12-12T10:40:12.622Z,99345.75
2022-12-12T10:43:03.668Z,99354.44
2022-12-12T10:46:08.774Z,99355.31
2022-12-12T10:48:35.551Z,99360.31
2022-12-12T10:51:09.858Z,99345.09
2022-12-12T10:53:36.673Z,99347.81
2022-12-12T10:56:03.224Z,99351.44
2022-12-12T10:58:38.459Z,99347.13
2022-12-12T11:01:13.261Z,99347.22
2022-12-12T11:03:45.190Z,99348.81
2022-12-12T11:06:17.506Z,99347.53
2022-12-12T11:09:00.737Z,99352.97
2022-12-12T11:11:28.608Z,99353.66
2022-12-12T11:14:00.664Z,99349.25
2022-12-12T11:16:41.061Z,99350.22
2022-12-12T11:19:20.725Z,99345.25
2022-12-12T11:21:48.421Z,99346.28
2022-12-12T11:24:19.777Z,99355.59
2022-12-12T11:26:56.538Z,99356.50
2022-12-12T11:29:38.340Z,99354.81
2022-12-12T11:32:05.620Z,99357.38
2022-12-12T11:34:37.899Z,99375.28
2022-12-12T11:37:04.538Z,99355.25
2022-12-12T11:39:39.083Z,99363.88
2022-12-12T11:42:17.332Z,99363.63
2022-12-12T11:44:45.093Z,99371.22
2022-12-12T11:47:18.941Z,99371.41
2022-12-12T11:49:58.083Z,99372.03
2022-12-12T11:52:30.934Z,99369.47
2022-12-12T11:54:59.248Z,99378.09
2022-12-12T11:57:43.750Z,99382.41
2022-12-12T12:00:22.920Z,99370.50
2022-12-12T12:03:12.921Z,99384.50
2022-12-12T12:05:57.551Z,99378.13
2022-12-12T12:08:54.794Z,99375.59
2022-12-12T12:11:21.331Z,99390.28
2022-12-12T12:14:13.468Z,99390.16
2022-12-12T12:16:46.202Z,99385.84
2022-12-12T12:19:31.359Z,99376.72
2022-12-12T12:22:16.346Z,99383.63
2022-12-12T12:25:00.903Z,99383.16
2022-12-12T12:27:41.786Z,99385.75
2022-12-12T12:30:24.059Z,99388.19
2022-12-12T12:33:15.228Z,99377.13
2022-12-12T12:35:56.952Z,99384.16
2022-12-12T12:38:23.472Z,99377.16
2022-12-12T12:41:17.796Z,99366.69
2022-12-12T12:44:04.622Z,99370.91
2022-12-12T12:46:51.450Z,99374.53
2022-12-12T12:49:51.728Z,99378.91
2022-12-12T12:52:25.108Z,99383.91
2022-12-12T12:54:55.357Z,99386.44
2022-12-12T12:57:33.089Z,99393.56
2022-12-12T13:00:06.738Z,99392.31
2022-12-12T13:02:52.334Z,99396.81
2022-12-12T13:05:26.476Z,99392.38
2022-12-12T13:08:26.634Z,99397.44
2022-12-12T13:11:00.946Z,99393.25
2022-12-12T13:13:31.115Z,99397.38
2022-12-12T13:16:06.501Z,99399.53
2022-12-12T13:18:45.146Z,99397.19
2022-12-12T13:21:21.371Z,99402.34
2022-12-12T13:23:59.081Z,99398.78
2022-12-12T13:26:47.281Z,99400.31
2022-12-12T13:29:32.120Z,99405.34
2022-12-12T13:31:58.677Z,99408.75
2022-12-12T13:34:28.637Z,99410.31
2022-12-12T13:36:57.998Z,99414.84
2022-12-12T13:39:38.394Z,99419.19
2022-12-12T13:42:07.655Z,99420.00
2022-12-12T13:44:44.478Z,99414.16
2022-12-12T13:47:23.198Z,99414.13
2022-12-12T13:50:22.870Z,99420.13
2022-12-12T13:53:07.785Z,99424.53
2022-12-12T13:55:35.639Z,99426.16
2022-12-12T13:58:02.176Z,99429.50
2022-12-12T14:00:30.605Z,99425.91
2022-12-12T14:03:24.687Z,99430.94
2022-12-12T14:05:55.564Z,99426.78
2022-12-12T14:08:30.510Z,99440.00
2022-12-12T14:11:07.545Z,99432.28
2022-12-12T14:13:39.224Z,99428.78
2022-12-12T14:16:18.771Z,99427.97
2022-12-12T14:18:51.356Z,99418.50
2022-12-12T14:21:20.402Z,99425.50
2022-12-12T14:23:53.087Z,99426.25
2022-12-12T14:26:28.692Z,99423.34
2022-12-12T14:29:16.984Z,99413.22
2022-12-12T14:31:55.918Z,99422.56
2022-12-12T14:34:22.444Z,99422.56
2022-12-12T14:37:36.517Z,99426.72
2022-12-12T14:40:23.027Z,99425.88
2022-12-12T14:43:19.208Z,99423.88
2022-12-12T14:46:04.234Z,99433.28
2022-12-12T14:48:33.051Z,99448.06
2022-12-12T14:51:12.354Z,99433.13
2022-12-12T14:53:38.913Z,99435.72
2022-12-12T14:56:21.040Z,99439.53
2022-12-12T14:59:04.831Z,99439.22
2022-12-12T15:01:35.763Z,99449.69
2022-12-12T15:04:11.539Z,99450.66
2022-12-12T15:06:43.522Z,99454.84
2022-12-12T15:09:30.329Z,99460.84
2022-12-12T15:12:14.139Z,99463.38
2022-12-12T15:14:46.550Z,99472.03
2022-12-12T15:17:19.687Z,99477.72
2022-12-12T15:19:52.310Z,99471.97
2022-12-12T15:22:32.021Z,99474.47
2022-12-12T15:25:13.390Z,99477.81
2022-12-12T15:27:46.916Z,99481.44
2022-12-12T15:30:37.549Z,99483.88
2022-12-12T15:33:08.019Z,99478.25
2022-12-12T15:35:34.859Z,99480.50
2022-12-12T15:38:05.257Z,99488.63
2022-12-12T15:40:33.793Z,99484.88
2022-12-12T15:43:07.496Z,99490.78
2022-12-12T15:45:37.970Z,99484.19
2022-12-12T15:48:05.977Z,99485.50
2022-12-12T15:50:41.601Z,99487.69
2022-12-12T15:53:26.626Z,99499.94
2022-12-12T15:56:15.012Z,99492.19
2022-12-12T15:58:48.152Z,99494.66
2022-12-12T16:01:20.097Z,99495.72
2022-12-12T16:04:10.340Z,99494.66
2022-12-12T16:06:43.662Z,99499.13
2022-12-12T16:09:10.205Z,99496.34
2022-12-12T16:11:40.731Z,99498.06
2022-12-12T16:14:32.546Z,99510.09
2022-12-12T16:17:20.779Z,99502.31
2022-12-12T16:20:11.758Z,99502.53
2022-12-12T16:22:44.607Z,99511.09
2022-12-12T16:25:17.217Z,99502.53
2022-12-12T16:27:45.053Z,99512.34
2022-12-12T16:30:14.323Z,99511.34
2022-12-12T16:32:41.419Z,99507.22
2022-12-12T16:35:09.881Z,99511.06
2022-12-12T16:37:36.452Z,99517.78
2022-12-12T16:40:03.202Z,99521.75
2022-12-12T16:42:29.914Z,99516.50
2022-12-12T16:44:56.540Z,99524.56
2022-12-12T16:47:24.605Z,99531.28
2022-12-12T16:49:52.086Z,99523.66
2022-12-12T16:52:20.352Z,99525.19
2022-12-12T16:54:53.068Z,99520.47
2022-12-12T16:57:22.600Z,99521.75
2022-12-12T16:59:49.223Z,99519.19
2022-12-12T17:02:24.555Z,99521.94
2022-12-12T17:04:52.088Z,99530.63
2022-12-12T17:07:18.849Z,99521.97
2022-12-12T17:09:45.455Z,99523.97
2022-12-12T17:12:12.587Z,99521.97
2022-12-12T17:14:39.190Z,99529.78
2022-12-12T17:17:05.928Z,99534.03
2022-12-12T17:19:32.996Z,99535.09
2022-12-12T17:21:59.592Z,99541.63
2022-12-12T17:24:26.317Z,99530.94
2022-12-12T17:26:52.931Z,99540.81
2022-12-12T17:29:19.656Z,99541.78
2022-12-12T17:31:46.537Z,99540.41
2022-12-12T17:34:13.142Z,99545.31
2022-12-12T17:36:39.786Z,99543.66
2022-12-12T17:39:06.382Z,99552.09
2022-12-12T17:41:34.170Z,99551.72
2022-12-12T17:44:00.743Z,99543.81
2022-12-12T17:46:27.391Z,99559.59
2022-12-12T17:48:54.025Z,99559.22
2022-12-12T17:51:22.066Z,99557.28
2022-12-12T17:53:48.735Z,99550.94
2022-12-12T17:56:17.800Z,99559.25
2022-12-12T17:58:46.581Z,99559.97
2022-12-12T18:01:19.456Z,99544.88
2022-12-12T18:03:47.177Z,99561.06
2022-12-12T18:06:14.496Z,99555.38
2022-12-12T18:08:41.606Z,99556.59
2022-12-12T18:11:14.311Z,99561.50
2022-12-12T18:13:42.461Z,99560.63
2022-12-12T18:16:11.950Z,99558.78
2022-12-12T18:18:38.779Z,99560.41
2022-12-12T18:21:08.703Z,99556.13
2022-12-12T18:23:35.925Z,99552.50
2022-12-12T18:26:05.210Z,99556.75
2022-12-12T18:28:32.143Z,99564.44
2022-12-12T18:30:59.045Z,99566.41
2022-12-12T18:33:25.639Z,99564.47
2022-12-12T18:36:00.199Z,99566.44
2022-12-12T18:38:26.836Z,99572.56
2022-12-12T18:40:53.435Z,99573.22
2022-12-12T18:43:20.028Z,99568.16
2022-12-12T18:45:46.808Z,99572.78
2022-12-12T18:48:13.415Z,99575.47
2022-12-12T18:50:40.030Z,99580.03
2022-12-12T18:53:06.657Z,99574.72
2022-12-12T18:55:33.251Z,99572.22
2022-12-12T18:58:00.126Z,99576.63
2022-12-12T19:00:26.924Z,99578.13
2022-12-12T19:02:53.535Z,99581.38
2022-12-12T19:05:20.201Z,99587.06
2022-12-12T19:07:47.040Z,99592.69
2022-12-12T19:10:13.877Z,99590.09
2022-12-12T19:12:40.652Z,99590.38
2022-12-12T19:15:16.722Z,99599.03
2022-12-12T19:17:44.209Z,99597.31
2022-12-12T19:20:11.248Z,99598.25
2022-12-12T19:22:46.601Z,99594.28
2022-12-12T19:25:15.048Z,99603.03
2022-12-12T19:27:41.666Z,99605.63
2022-12-12T19:30:09.414Z,99608.94
2022-12-12T19:32:36.011Z,99614.97
2022-12-12T19:35:02.638Z,99616.66
2022-12-12T19:37:29.326Z,99625.19
2022-12-12T19:39:56.048Z,99623.09
2022-12-12T19:42:23.025Z,99630.81
2022-12-12T19:44:49.626Z,99634.97
2022-12-12T19:47:16.250Z,99634.16
2022-12-12T19:49:42.896Z,99637.72
2022-12-12T19:52:14.063Z,99642.13
2022-12-12T19:54:41.189Z,99650.50
2022-12-12T19:57:07.821Z,99656.41
2022-12-12T19:59:34.399Z,99649.94
2022-12-12T20:02:01.013Z,99649.16
2022-12-12T20:04:27.661Z,99650.16
2022-12-12T20:06:54.247Z,99643.72
2022-12-12T20:09:24.529Z,99656.72
2022-12-12T20:11:51.226Z,99659.22
2022-12-12T20:14:20.792Z,99656.06
2022-12-12T20:16:48.139Z,99660.84
2022-12-12T20:19:15.708Z,99663.53
2022-12-12T20:22:03.343Z,99666.97
2022-12-12T20:24:32.364Z,99664.53
2022-12-12T20:26:59.578Z,99666.16
2022-12-12T20:29:27.249Z,99661.94
2022-12-12T20:31:54.002Z,99659.66
2022-12-12T20:34:21.396Z,99662.41
2022-12-12T20:36:48.000Z,99657.66
2022-12-12T20:39:17.552Z,99673.75
2022-12-12T20:41:44.821Z,99669.66
2022-12-12T20:44:12.759Z,99664.50
2022-12-12T20:46:42.003Z,99673.09
2022-12-12T20:49:10.536Z,99680.03
2022-12-12T20:54:25.025Z,99668.06
2022-12-12T20:56:52.263Z,99660.56
2022-12-12T20:59:18.843Z,99665.69
2022-12-12T21:01:45.592Z,99663.91
2022-12-12T21:04:12.227Z,99669.94
2022-12-12T21:06:41.243Z,99689.63
2022-12-12T21:09:09.923Z,99670.56
2022-12-12T21:11:37.968Z,99683.66
2022-12-12T21:14:05.060Z,99684.72
2022-12-12T21:16:34.662Z,99689.63
2022-12-12T21:19:06.173Z,99690.47
2022-12-12T21:21:32.861Z,99687.13
2022-12-12T21:24:00.218Z,99695.03
2022-12-12T21:26:30.129Z,99692.34
2022-12-12T21:28:58.122Z,99697.22
2022-12-12T21:31:27.377Z,99699.19
2022-12-12T21:33:54.688Z,99700.13
2022-12-12T21:36:23.384Z,99692.22
2022-12-12T21:38:51.999Z,99701.53
2022-12-12T21:41:20.960Z,99694.28
2022-12-12T21:43:48.320Z,99706.16
2022-12-12T21:46:17.588Z,99711.00
2022-12-12T21:48:44.218Z,99708.50
2022-12-12T21:51:16.179Z,99706.84
2022-12-12T21:53:43.451Z,99697.16
2022-12-12T21:56:13.580Z,99698.75
2022-12-12T21:58:41.603Z,99696.19
2022-12-12T22:01:11.822Z,99685.78
2022-12-12T22:03:38.694Z,99689.13
2022-12-12T22:06:13.255Z,99689.94
2022-12-12T22:08:41.203Z,99685.72
2022-12-12T22:11:09.382Z,99686.03
2022-12-12T22:13:40.080Z,99685.06
2022-12-12T22:16:10.308Z,99692.69
2022-12-12T22:18:37.083Z,99685.81
2022-12-12T22:21:12.697Z,99687.63
2022-12-12T22:23:39.524Z,99696.88
2022-12-12T22:26:17.088Z,99698.47
2022-12-12T22:28:43.668Z,99703.84
2022-12-12T22:31:11.024Z,99697.56
2022-12-12T22:33:37.714Z,99699.19
2022-12-12T22:36:09.097Z,99696.00
2022-12-12T22:38:38.398Z,99705.56
2022-12-12T22:41:06.695Z,99710.81
2022-12-12T22:43:34.658Z,99719.50
2022-12-12T22:46:07.115Z,99722.53
2022-12-12T22:48:34.800Z,99719.75
2022-12-12T22:51:25.495Z,99724.00
2022-12-12T22:53:52.118Z,99719.78
2022-12-12T22:56:18.751Z,99721.16
2022-12-12T22:58:45.321Z,99724.09
2022-12-12T23:01:18.953Z,99724.25
2022-12-12T23:03:46.698Z,99718.72
2022-12-12T23:06:19.083Z,99724.25
2022-12-12T23:08:54.120Z,99724.94
2022-12-12T23:11:22.082Z,99721.00
2022-12-12T23:13:48.703Z,99733.19
2022-12-12T23:16:17.998Z,99731.25
2022-12-12T23:18:46.170Z,99732.06
2022-12-12T23:21:17.208Z,99739.81
2022-12-12T23:23:44.929Z,99738.94
2022-12-12T23:26:19.804Z,99744.13
2022-12-12T23:28:47.640Z,99742.78
2022-12-12T23:31:17.399Z,99746.41
2022-12-12T23:33:45.294Z,99747.72
2022-12-12T23:36:14.625Z,99747.16
2022-12-12T23:38:41.930Z,99744.97
2022-12-12T23:41:14.237Z,99745.44
2022-12-12T23:43:41.501Z,99744.97
2022-12-12T23:46:11.567Z,99751.84
2022-12-12T23:48:38.246Z,99751.88
2022-12-12T23:51:04.971Z,99747.94
2022-12-12T23:53:32.459Z,99741.56
2022-12-12T23:56:04.047Z,99744.56
2022-12-12T23:58:30.753Z,99750.28
